Time;durP1;ratioP1;P1;durP2;ratioP2;P2;SDS_P1;SDS_P2;PMS_P1;PMS_P2;Temp;Humidity;BMP_temperature;BMP_pressure;BME280_temperature;BME280_humidity;BME280_pressure;Samples;Min_cycle;Max_cycle;Signal;HPM_P1;HPM_P2
2021/10/07 00:06:05;;;;;;;6.20;2.28;;;;;;;;;;21250067;27;20053;-56
2021/10/07 00:16:08;;;;;;;3.90;2.13;;;;;;;;;;21248577;27;20053;-59
2021/10/07 00:26:10;;;;;;;3.47;2.13;;;;;;;;;;21247929;28;20135;-57
2021/10/07 00:36:35;;;;;;;3.85;1.90;;;;;;;;;;21253006;28;20499;-55
2021/10/07 00:46:37;;;;;;;;;;;;;;;;;;21251145;27;20043;-58
2021/10/07 00:56:40;;;;;;;4.50;2.15;;;;;;;;;;21263461;27;19964;-55
2021/10/07 01:06:43;;;;;;;2.65;1.80;;;;;;;;;;21263035;27;20066;-57
2021/10/07 01:16:47;;;;;;;3.70;2.08;;;;;;;;;;21261614;27;20050;-57
2021/10/07 01:26:51;;;;;;;3.33;1.75;;;;;;;;;;21262089;27;20045;-56
2021/10/07 01:36:55;;;;;;;2.70;1.80;;;;;;;;;;21260633;27;20116;-58
2021/10/07 01:46:59;;;;;;;2.63;1.80;;;;;;;;;;21265345;27;20537;-60
2021/10/07 01:57:07;;;;;;;3.28;2.00;;;;;;;;;;21266099;27;20058;-62
2021/10/07 02:07:11;;;;;;;3.63;1.42;;;;;;;;;;21259582;27;20062;-57
2021/10/07 02:17:16;;;;;;;2.78;1.80;;;;;;;;;;21257260;27;20051;-58
2021/10/07 02:27:20;;;;;;;3.85;1.83;;;;;;;;;;21257121;27;20419;-57
2021/10/07 02:37:42;;;;;;;3.10;1.70;;;;;;;;;;21256844;27;20058;-55
2021/10/07 02:48:04;;;;;;;4.45;1.67;;;;;;;;;;21257055;27;20050;-58
2021/10/07 02:58:25;;;;;;;3.15;1.40;;;;;;;;;;21238474;27;20058;-57
2021/10/07 03:08:47;;;;;;;3.20;1.88;;;;;;;;;;21254322;27;20112;-57
2021/10/07 03:19:09;;;;;;;2.00;1.70;;;;;;;;;;21253250;27;20051;-57
2021/10/07 03:29:31;;;;;;;3.17;1.75;;;;;;;;;;21251632;27;20039;-58
2021/10/07 03:39:53;;;;;;;2.72;1.52;;;;;;;;;;21235484;27;20061;-56
2021/10/07 03:50:14;;;;;;;4.55;1.90;;;;;;;;;;21251462;27;20050;-56
2021/10/07 04:00:36;;;;;;;3.22;1.80;;;;;;;;;;21250199;27;20540;-56
2021/10/07 04:10:57;;;;;;;3.15;1.67;;;;;;;;;;21250127;27;20115;-56
2021/10/07 04:21:13;;;;;;;3.67;2.10;;;;;;;;;;21251501;27;20055;-57
2021/10/07 04:31:35;;;;;;;4.15;2.05;;;;;;;;;;21248838;28;20047;-59
2021/10/07 04:41:56;;;;;;;4.03;2.00;;;;;;;;;;21247549;28;20058;-57
2021/10/07 04:52:18;;;;;;;3.70;2.25;;;;;;;;;;21247697;28;20047;-57
2021/10/07 05:02:39;;;;;;;4.60;2.13;;;;;;;;;;21247404;28;20055;-57
2021/10/07 05:12:54;;;;;;;5.15;2.22;;;;;;;;;;21229628;28;20043;-56
2021/10/07 05:23:12;;;;;;;4.88;2.20;;;;;;;;;;21245630;28;20538;-56
2021/10/07 05:33:24;;;;;;;5.68;2.55;;;;;;;;;;21248176;27;20502;-61
2021/10/07 05:43:31;;;;;;;6.80;2.95;;;;;;;;;;21260384;27;20387;-60
2021/10/07 05:53:40;;;;;;;5.32;2.47;;;;;;;;;;21242803;27;20047;-56
2021/10/07 06:03:46;;;;;;;6.07;2.80;;;;;;;;;;21258005;27;20055;-57
2021/10/07 06:13:50;;;;;;;5.43;2.20;;;;;;;;;;21257609;27;20039;-57
2021/10/07 06:23:54;;;;;;;4.88;2.75;;;;;;;;;;21264003;27;20388;-57
2021/10/07 06:33:57;;;;;;;5.20;2.20;;;;;;;;;;21267719;27;20047;-57
2021/10/07 06:44:00;;;;;;;5.50;2.47;;;;;;;;;;21255359;27;20130;-56
2021/10/07 06:54:04;;;;;;;8.18;4.93;;;;;;;;;;21254816;27;20486;-56
2021/10/07 07:04:06;;;;;;;8.85;3.20;;;;;;;;;;21252981;27;20058;-56
2021/10/07 07:14:09;;;;;;;9.10;2.58;;;;;;;;;;21251918;27;20075;-55
2021/10/07 07:24:12;;;;;;;5.40;2.80;;;;;;;;;;21251445;27;20257;-56
2021/10/07 07:34:14;;;;;;;7.10;2.92;;;;;;;;;;21251261;27;20055;-56
2021/10/07 07:44:18;;;;;;;12.73;4.22;;;;;;;;;;21250247;27;20095;-56
2021/10/07 07:54:20;;;;;;;8.00;4.35;;;;;;;;;;21231542;27;20043;-54
2021/10/07 08:04:25;;;;;;;7.05;3.72;;;;;;;;;;21249668;27;20107;-55
2021/10/07 08:14:28;;;;;;;7.93;4.35;;;;;;;;;;21248514;27;20047;-55
2021/10/07 08:24:32;;;;;;;9.40;4.00;;;;;;;;;;21248606;27;20047;-55
2021/10/07 08:34:39;;;;;;;9.10;3.85;;;;;;;;;;21248175;28;20402;-55
2021/10/07 08:44:43;;;;;;;10.15;5.35;;;;;;;;;;21247484;28;20054;-56
2021/10/07 08:54:45;;;;;;;10.43;4.23;;;;;;;;;;21247226;28;20163;-56
2021/10/07 09:04:48;;;;;;;11.38;4.68;;;;;;;;;;21246551;28;20311;-56
2021/10/07 09:14:53;;;;;;;12.90;4.55;;;;;;;;;;21261233;27;20099;-59
2021/10/07 09:24:57;;;;;;;8.35;3.50;;;;;;;;;;21260948;27;20047;-52
2021/10/07 09:35:00;;;;;;;;;;;;;;;;;;21272429;27;20576;-58
2021/10/07 09:45:09;;;;;;;10.77;3.38;;;;;;;;;;21344702;27;19923;-58
2021/10/07 09:55:16;;;;;;;11.75;3.42;;;;;;;;;;21343546;27;20055;-67
2021/10/07 10:05:20;;;;;;;10.02;2.83;;;;;;;;;;21344146;27;20087;-61
2021/10/07 10:15:23;;;;;;;5.47;2.13;;;;;;;;;;21343202;27;20096;-61
2021/10/07 10:25:26;;;;;;;7.75;2.13;;;;;;;;;;21341327;27;20560;-60
2021/10/07 10:35:40;;;;;;;4.65;1.70;;;;;;;;;;21339704;27;20122;-60
2021/10/07 10:45:47;;;;;;;5.88;1.77;;;;;;;;;;21340087;27;20094;-63
2021/10/07 10:55:50;;;;;;;5.80;2.03;;;;;;;;;;21338890;27;20046;-53
2021/10/07 11:06:01;;;;;;;5.35;1.90;;;;;;;;;;21343376;27;20051;-58
2021/10/07 11:16:05;;;;;;;6.30;1.90;;;;;;;;;;21339759;27;20405;-63
2021/10/07 11:26:08;;;;;;;12.48;2.60;;;;;;;;;;21339921;27;20502;-69
2021/10/07 11:36:13;;;;;;;5.73;2.17;;;;;;;;;;21337311;27;20096;-59
2021/10/07 11:46:20;;;;;;;9.52;2.22;;;;;;;;;;21337812;27;20043;-53
2021/10/07 11:56:25;;;;;;;7.97;2.25;;;;;;;;;;21326319;27;20123;-58
2021/10/07 12:06:32;;;;;;;5.45;2.55;;;;;;;;;;21333764;27;20050;-59
2021/10/07 12:16:40;;;;;;;6.88;2.75;;;;;;;;;;21333608;27;20187;-59
2021/10/07 12:26:45;;;;;;;9.43;2.30;;;;;;;;;;21333402;27;20054;-59
2021/10/07 12:36:49;;;;;;;11.30;3.70;;;;;;;;;;21332099;27;20130;-59
2021/10/07 12:46:56;;;;;;;6.47;1.90;;;;;;;;;;21343168;27;20104;-59
2021/10/07 12:56:59;;;;;;;7.65;2.03;;;;;;;;;;21349137;27;20054;-59
2021/10/07 13:07:08;;;;;;;4.30;2.10;;;;;;;;;;21348970;27;20142;-58
2021/10/07 13:17:10;;;;;;;4.13;1.55;;;;;;;;;;21348165;27;20077;-59
2021/10/07 13:27:19;;;;;;;3.63;1.70;;;;;;;;;;21347040;27;20051;-59
2021/10/07 13:37:22;;;;;;;2.22;1.20;;;;;;;;;;21346704;27;20046;-64
2021/10/07 13:47:26;;;;;;;5.05;2.50;;;;;;;;;;21346560;27;20047;-61
2021/10/07 13:57:31;;;;;;;6.55;1.20;;;;;;;;;;21343786;27;20418;-62
2021/10/07 14:07:36;;;;;;;4.38;1.55;;;;;;;;;;21344586;27;20545;-60
2021/10/07 14:17:39;;;;;;;5.40;2.65;;;;;;;;;;21343449;27;20047;-60
2021/10/07 14:27:41;;;;;;;3.47;1.90;;;;;;;;;;21343279;27;20094;-60
2021/10/07 14:37:44;;;;;;;3.70;1.42;;;;;;;;;;21341929;27;20455;-59
2021/10/07 14:47:48;;;;;;;2.97;1.80;;;;;;;;;;21341620;27;20205;-62
2021/10/07 14:57:52;;;;;;;3.83;1.17;;;;;;;;;;21340068;27;20062;-62
2021/10/07 15:07:56;;;;;;;4.15;1.10;;;;;;;;;;21338937;27;20109;-60
2021/10/07 15:18:01;;;;;;;6.93;1.60;;;;;;;;;;21339136;27;20413;-61
2021/10/07 15:28:05;;;;;;;4.00;1.88;;;;;;;;;;21338298;27;20046;-60
2021/10/07 15:38:08;;;;;;;3.75;1.30;;;;;;;;;;21337217;27;20043;-62
2021/10/07 15:48:11;;;;;;;4.05;1.90;;;;;;;;;;21336731;27;20417;-60
2021/10/07 15:58:13;;;;;;;3.72;1.40;;;;;;;;;;21334600;27;20106;-60
2021/10/07 16:08:18;;;;;;;5.38;1.50;;;;;;;;;;21334661;27;20054;-60
2021/10/07 16:18:23;;;;;;;3.88;1.23;;;;;;;;;;21332857;27;20051;-60
2021/10/07 16:28:27;;;;;;;3.17;1.10;;;;;;;;;;21332759;27;20055;-61
2021/10/07 16:38:30;;;;;;;2.85;1.85;;;;;;;;;;21333486;27;20115;-60
2021/10/07 16:48:33;;;;;;;4.22;2.45;;;;;;;;;;21331973;27;20486;-60
2021/10/07 16:58:37;;;;;;;2.75;1.73;;;;;;;;;;21332184;27;20057;-59
2021/10/07 17:08:40;;;;;;;3.15;1.83;;;;;;;;;;21332376;27;20043;-60
2021/10/07 17:18:44;;;;;;;4.18;2.13;;;;;;;;;;21330704;27;20057;-60
2021/10/07 17:28:46;;;;;;;5.77;3.40;;;;;;;;;;21333941;27;20046;-59
2021/10/07 17:38:49;;;;;;;7.50;3.72;;;;;;;;;;21346334;27;20057;-61
2021/10/07 17:48:53;;;;;;;5.07;3.50;;;;;;;;;;21345110;27;20084;-60
2021/10/07 17:58:55;;;;;;;5.80;2.80;;;;;;;;;;21344223;27;20055;-59
2021/10/07 18:08:58;;;;;;;6.83;2.37;;;;;;;;;;21344005;27;20043;-61
2021/10/07 18:19:00;;;;;;;7.82;3.10;;;;;;;;;;21343034;27;20125;-59
2021/10/07 18:29:03;;;;;;;7.07;3.28;;;;;;;;;;21342342;27;20049;-59
2021/10/07 18:39:05;;;;;;;;;;;;;;;;;;21340672;27;20043;-58
2021/10/07 18:49:08;;;;;;;8.10;3.75;;;;;;;;;;21340053;27;19930;-60
2021/10/07 18:59:11;;;;;;;14.25;5.53;;;;;;;;;;21339719;27;20051;-59
2021/10/07 19:09:14;;;;;;;8.67;3.90;;;;;;;;;;21339314;27;20419;-58
2021/10/07 19:19:16;;;;;;;8.70;4.23;;;;;;;;;;21338147;27;20310;-59
2021/10/07 19:29:18;;;;;;;12.48;6.05;;;;;;;;;;21336882;27;20144;-61
2021/10/07 19:39:21;;;;;;;8.95;5.43;;;;;;;;;;21338373;27;20047;-59
2021/10/07 19:49:25;;;;;;;10.52;3.78;;;;;;;;;;21336067;27;20052;-59
2021/10/07 19:59:26;;;;;;;10.07;4.07;;;;;;;;;;21334521;27;20051;-60
2021/10/07 20:09:28;;;;;;;9.25;4.00;;;;;;;;;;21334582;27;20050;-59
2021/10/07 20:19:31;;;;;;;14.05;4.70;;;;;;;;;;21333432;27;20131;-59
2021/10/07 20:29:33;;;;;;;9.23;3.83;;;;;;;;;;21333630;27;20121;-60
2021/10/07 20:39:42;;;;;;;9.10;3.53;;;;;;;;;;21333086;27;20102;-59
2021/10/07 20:49:45;;;;;;;10.25;4.72;;;;;;;;;;21333036;27;20100;-59
2021/10/07 20:59:47;;;;;;;7.78;4.03;;;;;;;;;;21332396;27;20127;-59
2021/10/07 21:09:50;;;;;;;9.75;4.05;;;;;;;;;;21345166;27;20042;-59
2021/10/07 21:19:52;;;;;;;9.10;3.30;;;;;;;;;;21348239;27;20047;-61
2021/10/07 21:29:57;;;;;;;7.13;3.33;;;;;;;;;;21347410;27;20054;-61
2021/10/07 21:40:02;;;;;;;8.85;3.10;;;;;;;;;;21346204;27;20448;-60
2021/10/07 21:50:05;;;;;;;5.57;2.40;;;;;;;;;;21346279;27;20126;-60
2021/10/07 22:00:15;;;;;;;3.05;2.00;;;;;;;;;;21344742;27;20061;-59
2021/10/07 22:10:19;;;;;;;5.03;2.20;;;;;;;;;;21343875;27;20095;-59
2021/10/07 22:20:23;;;;;;;6.13;2.50;;;;;;;;;;21342018;27;20092;-59
2021/10/07 22:30:28;;;;;;;6.80;2.85;;;;;;;;;;21342410;27;20042;-59
2021/10/07 22:40:31;;;;;;;3.88;2.30;;;;;;;;;;21342203;27;20051;-59
2021/10/07 22:50:34;;;;;;;8.02;1.90;;;;;;;;;;21341337;27;20088;-59
2021/10/07 23:00:36;;;;;;;4.65;1.95;;;;;;;;;;21340068;27;20370;-58
2021/10/07 23:10:39;;;;;;;6.88;2.17;;;;;;;;;;21339409;27;20065;-59
2021/10/07 23:20:41;;;;;;;5.95;2.05;;;;;;;;;;21338488;27;20482;-59
2021/10/07 23:30:43;;;;;;;3.75;1.92;;;;;;;;;;21337433;27;20054;-59
2021/10/07 23:40:45;;;;;;;5.30;1.80;;;;;;;;;;21337726;27;20554;-59
2021/10/07 23:50:48;;;;;;;4.38;1.95;;;;;;;;;;21336082;27;20047;-61
